sensor_id;sensor_type;location;lat;lon;timestamp;pressure;altitude;pressure_sealevel;temperature;humidity
84358;BME280;74548;47.712;9.272;2024-03-08T00:02:11;95399.63;;;9.17;59.88
84358;BME280;74548;47.712;9.272;2024-03-08T00:04:38;95399.09;;;9.15;60.16
84358;BME280;74548;47.712;9.272;2024-03-08T00:09:19;95397.50;;;9.14;60.46
84358;BME280;74548;47.712;9.272;2024-03-08T00:11:46;95397.50;;;9.14;59.53
84358;BME280;74548;47.712;9.272;2024-03-08T00:14:12;95398.56;;;9.13;60.35
84358;BME280;74548;47.712;9.272;2024-03-08T00:16:37;95395.88;;;9.13;59.72
84358;BME280;74548;47.712;9.272;2024-03-08T00:19:02;95393.47;;;9.12;59.40
84358;BME280;74548;47.712;9.272;2024-03-08T00:21:28;95389.97;;;9.11;59.80
84358;BME280;74548;47.712;9.272;2024-03-08T00:23:53;95383.81;;;9.11;59.77
84358;BME280;74548;47.712;9.272;2024-03-08T00:26:20;95393.75;;;9.10;59.75
84358;BME280;74548;47.712;9.272;2024-03-08T00:28:47;95385.66;;;9.10;59.81
84358;BME280;74548;47.712;9.272;2024-03-08T00:31:13;95384.06;;;9.09;59.64
84358;BME280;74548;47.712;9.272;2024-03-08T00:33:39;95381.69;;;9.07;60.22
84358;BME280;74548;47.712;9.272;2024-03-08T00:36:04;95388.94;;;9.07;59.97
84358;BME280;74548;47.712;9.272;2024-03-08T00:38:30;95381.94;;;9.06;59.55
84358;BME280;74548;47.712;9.272;2024-03-08T00:40:56;95384.63;;;9.06;59.68
84358;BME280;74548;47.712;9.272;2024-03-08T00:43:22;95377.66;;;9.05;60.09
84358;BME280;74548;47.712;9.272;2024-03-08T00:45:47;95374.16;;;9.04;59.14
84358;BME280;74548;47.712;9.272;2024-03-08T00:48:12;95369.84;;;9.03;59.89
84358;BME280;74548;47.712;9.272;2024-03-08T00:53:05;95370.16;;;9.02;59.60
84358;BME280;74548;47.712;9.272;2024-03-08T00:55:31;95368.25;;;9.02;59.20
84358;BME280;74548;47.712;9.272;2024-03-08T00:57:56;95369.34;;;9.01;59.73
84358;BME280;74548;47.712;9.272;2024-03-08T01:00:22;95364.75;;;9.02;59.68
84358;BME280;74548;47.712;9.272;2024-03-08T01:02:47;95362.34;;;9.00;59.58
84358;BME280;74548;47.712;9.272;2024-03-08T01:05:13;95358.84;;;9.00;59.80
84358;BME280;74548;47.712;9.272;2024-03-08T01:07:38;95349.19;;;8.99;60.21
84358;BME280;74548;47.712;9.272;2024-03-08T01:10:04;95352.97;;;8.98;59.40
84358;BME280;74548;47.712;9.272;2024-03-08T01:12:34;95351.06;;;8.98;59.68
84358;BME280;74548;47.712;9.272;2024-03-08T01:15:00;95344.38;;;8.96;59.84
84358;BME280;74548;47.712;9.272;2024-03-08T01:17:25;95341.66;;;8.96;59.97
84358;BME280;74548;47.712;9.272;2024-03-08T01:19:51;95337.09;;;8.96;59.94
84358;BME280;74548;47.712;9.272;2024-03-08T01:22:16;95343.56;;;8.95;59.69
84358;BME280;74548;47.712;9.272;2024-03-08T01:24:41;95332.00;;;8.95;60.08
84358;BME280;74548;47.712;9.272;2024-03-08T01:27:07;95337.38;;;8.95;59.95
84358;BME280;74548;47.712;9.272;2024-03-08T01:29:34;95331.19;;;8.94;59.49
84358;BME280;74548;47.712;9.272;2024-03-08T01:31:59;95332.28;;;8.93;59.74
84358;BME280;74548;47.712;9.272;2024-03-08T01:34:27;95325.28;;;8.92;59.82
84358;BME280;74548;47.712;9.272;2024-03-08T01:36:54;95319.91;;;8.92;59.83
84358;BME280;74548;47.712;9.272;2024-03-08T01:39:21;95318.03;;;8.93;59.92
84358;BME280;74548;47.712;9.272;2024-03-08T01:41:47;95321.00;;;8.91;59.50
84358;BME280;74548;47.712;9.272;2024-03-08T01:44:13;95319.38;;;8.90;60.12
84358;BME280;74548;47.712;9.272;2024-03-08T01:46:43;95313.19;;;8.90;59.77
84358;BME280;74548;47.712;9.272;2024-03-08T01:49:10;95311.31;;;8.90;59.39
84358;BME280;74548;47.712;9.272;2024-03-08T01:51:37;95305.13;;;8.90;60.28
84358;BME280;74548;47.712;9.272;2024-03-08T01:54:04;95304.34;;;8.89;60.29
84358;BME280;74548;47.712;9.272;2024-03-08T01:56:30;95311.59;;;8.89;59.90
84358;BME280;74548;47.712;9.272;2024-03-08T01:58:57;95303.53;;;8.89;59.63
84358;BME280;74548;47.712;9.272;2024-03-08T02:01:23;95298.16;;;8.89;59.58
84358;BME280;74548;47.712;9.272;2024-03-08T02:03:49;95290.34;;;8.87;59.88
84358;BME280;74548;47.712;9.272;2024-03-08T02:06:15;95294.13;;;8.86;59.85
84358;BME280;74548;47.712;9.272;2024-03-08T02:08:45;95285.28;;;8.86;59.63
84358;BME280;74548;47.712;9.272;2024-03-08T02:11:11;95285.28;;;8.86;60.00
84358;BME280;74548;47.712;9.272;2024-03-08T02:13:36;95278.25;;;8.84;59.78
84358;BME280;74548;47.712;9.272;2024-03-08T02:16:02;95284.47;;;8.85;59.75
84358;BME280;74548;47.712;9.272;2024-03-08T02:18:30;95281.25;;;8.83;60.03
84358;BME280;74548;47.712;9.272;2024-03-08T02:21:00;95267.00;;;8.82;60.22
84358;BME280;74548;47.712;9.272;2024-03-08T02:23:26;95262.69;;;8.81;59.75
84358;BME280;74548;47.712;9.272;2024-03-08T02:25:53;95270.75;;;8.81;59.97
84358;BME280;74548;47.712;9.272;2024-03-08T02:28:18;95278.03;;;8.81;60.07
84358;BME280;74548;47.712;9.272;2024-03-08T02:30:47;95278.81;;;8.81;59.86
84358;BME280;74548;47.712;9.272;2024-03-08T02:33:14;95273.75;;;8.80;60.22
84358;BME280;74548;47.712;9.272;2024-03-08T02:35:43;95273.75;;;8.80;60.20
84358;BME280;74548;47.712;9.272;2024-03-08T02:38:15;95266.78;;;8.79;59.71
84358;BME280;74548;47.712;9.272;2024-03-08T02:40:42;95271.31;;;8.78;59.83
84358;BME280;74548;47.712;9.272;2024-03-08T02:43:09;95262.47;;;8.78;59.55
84358;BME280;74548;47.712;9.272;2024-03-08T02:45:34;95260.88;;;8.77;59.53
84358;BME280;74548;47.712;9.272;2024-03-08T02:48:00;95260.06;;;8.76;59.45
84358;BME280;74548;47.712;9.272;2024-03-08T02:50:25;95253.88;;;8.76;59.79
84358;BME280;74548;47.712;9.272;2024-03-08T02:52:51;95253.09;;;8.75;59.65
84358;BME280;74548;47.712;9.272;2024-03-08T02:55:16;95258.47;;;8.75;59.45
84358;BME280;74548;47.712;9.272;2024-03-08T02:57:42;95256.84;;;8.74;59.43
84358;BME280;74548;47.712;9.272;2024-03-08T03:00:12;95261.44;;;8.74;60.07
84358;BME280;74548;47.712;9.272;2024-03-08T03:02:38;95251.78;;;8.73;59.71
84358;BME280;74548;47.712;9.272;2024-03-08T03:05:04;95244.50;;;8.73;59.93
84358;BME280;74548;47.712;9.272;2024-03-08T03:07:34;95250.16;;;8.72;60.22
84358;BME280;74548;47.712;9.272;2024-03-08T03:10:00;95252.56;;;8.73;60.32
84358;BME280;74548;47.712;9.272;2024-03-08T03:12:28;95248.28;;;8.72;59.91
84358;BME280;74548;47.712;9.272;2024-03-08T03:14:54;95235.91;;;8.71;60.00
84358;BME280;74548;47.712;9.272;2024-03-08T03:17:24;95231.63;;;8.70;59.89
84358;BME280;74548;47.712;9.272;2024-03-08T03:19:50;95230.81;;;8.70;60.12
84358;BME280;74548;47.712;9.272;2024-03-08T03:22:17;95230.81;;;8.70;60.14
84358;BME280;74548;47.712;9.272;2024-03-08T03:24:42;95231.09;;;8.68;59.48
84358;BME280;74548;47.712;9.272;2024-03-08T03:27:07;95233.78;;;8.68;59.64
84358;BME280;74548;47.712;9.272;2024-03-08T03:29:43;95234.88;;;8.67;59.97
84358;BME280;74548;47.712;9.272;2024-03-08T03:32:14;95231.38;;;8.67;60.32
84358;BME280;74548;47.712;9.272;2024-03-08T03:34:42;95224.38;;;8.66;59.85
84358;BME280;74548;47.712;9.272;2024-03-08T03:37:09;95222.53;;;8.66;59.39
84358;BME280;74548;47.712;9.272;2024-03-08T03:39:37;95215.50;;;8.65;59.52
84358;BME280;74548;47.712;9.272;2024-03-08T03:42:16;95220.91;;;8.65;59.94
84358;BME280;74548;47.712;9.272;2024-03-08T03:44:44;95219.31;;;8.64;60.01
84358;BME280;74548;47.712;9.272;2024-03-08T03:47:10;95220.41;;;8.63;59.94
84358;BME280;74548;47.712;9.272;2024-03-08T03:49:36;95224.69;;;8.64;60.26
84358;BME280;74548;47.712;9.272;2024-03-08T03:52:01;95214.19;;;8.63;60.20
84358;BME280;74548;47.712;9.272;2024-03-08T03:54:26;95216.09;;;8.62;59.86
84358;BME280;74548;47.712;9.272;2024-03-08T03:56:52;95215.28;;;8.62;59.65
84358;BME280;74548;47.712;9.272;2024-03-08T03:59:18;95213.38;;;8.62;59.84
84358;BME280;74548;47.712;9.272;2024-03-08T04:01:44;95209.91;;;8.62;60.12
84358;BME280;74548;47.712;9.272;2024-03-08T04:04:09;95213.69;;;8.60;59.91
84358;BME280;74548;47.712;9.272;2024-03-08T04:06:35;95212.91;;;8.60;59.61
84358;BME280;74548;47.712;9.272;2024-03-08T04:09:00;95209.69;;;8.58;59.82
84358;BME280;74548;47.712;9.272;2024-03-08T04:11:25;95207.78;;;8.58;59.79
84358;BME280;74548;47.712;9.272;2024-03-08T04:13:51;95210.47;;;8.58;59.86
84358;BME280;74548;47.712;9.272;2024-03-08T04:16:17;95212.38;;;8.58;60.43
84358;BME280;74548;47.712;9.272;2024-03-08T04:18:44;95203.50;;;8.57;59.73
84358;BME280;74548;47.712;9.272;2024-03-08T04:21:09;95202.72;;;8.57;59.93
84358;BME280;74548;47.712;9.272;2024-03-08T04:23:35;95204.31;;;8.58;60.14
84358;BME280;74548;47.712;9.272;2024-03-08T04:26:02;95197.59;;;8.55;59.89
84358;BME280;74548;47.712;9.272;2024-03-08T04:28:28;95202.97;;;8.55;60.15
84358;BME280;74548;47.712;9.272;2024-03-08T04:30:54;95202.19;;;8.55;59.82
84358;BME280;74548;47.712;9.272;2024-03-08T04:33:20;95196.81;;;8.55;59.92
84358;BME280;74548;47.712;9.272;2024-03-08T04:35:46;95191.41;;;8.55;60.47
84358;BME280;74548;47.712;9.272;2024-03-08T04:38:12;95186.34;;;8.53;59.83
84358;BME280;74548;47.712;9.272;2024-03-08T04:40:38;95194.69;;;8.52;59.90
84358;BME280;74548;47.712;9.272;2024-03-08T04:43:03;95181.22;;;8.52;60.22
84358;BME280;74548;47.712;9.272;2024-03-08T04:45:29;95178.53;;;8.52;60.15
84358;BME280;74548;47.712;9.272;2024-03-08T04:47:54;95177.75;;;8.51;59.77
84358;BME280;74548;47.712;9.272;2024-03-08T04:50:19;95183.91;;;8.52;60.41
84358;BME280;74548;47.712;9.272;2024-03-08T04:52:45;95179.91;;;8.49;60.22
84358;BME280;74548;47.712;9.272;2024-03-08T04:55:11;95181.81;;;8.49;60.09
84358;BME280;74548;47.712;9.272;2024-03-08T04:57:37;95183.41;;;8.50;59.93
84358;BME280;74548;47.712;9.272;2024-03-08T05:00:03;95187.19;;;8.49;60.05
84358;BME280;74548;47.712;9.272;2024-03-08T05:02:32;95178.31;;;8.48;60.09
84358;BME280;74548;47.712;9.272;2024-03-08T05:04:58;95192.84;;;8.47;59.52
84358;BME280;74548;47.712;9.272;2024-03-08T05:07:23;95190.16;;;8.47;60.10
84358;BME280;74548;47.712;9.272;2024-03-08T05:09:49;95191.22;;;8.46;60.02
84358;BME280;74548;47.712;9.272;2024-03-08T05:12:18;95183.16;;;8.46;60.51
84358;BME280;74548;47.712;9.272;2024-03-08T05:14:45;95192.31;;;8.45;59.89
84358;BME280;74548;47.712;9.272;2024-03-08T05:17:11;95185.06;;;8.46;60.17
84358;BME280;74548;47.712;9.272;2024-03-08T05:19:37;95183.47;;;8.45;59.71
84358;BME280;74548;47.712;9.272;2024-03-08T05:24:25;95177.78;;;8.46;60.11
84358;BME280;74548;47.712;9.272;2024-03-08T05:26:50;95184.25;;;8.45;59.73
84358;BME280;74548;47.712;9.272;2024-03-08T05:29:15;95178.88;;;8.45;59.90
84358;BME280;74548;47.712;9.272;2024-03-08T05:31:51;95178.88;;;8.45;59.71
84358;BME280;74548;47.712;9.272;2024-03-08T05:34:20;95172.72;;;8.45;59.76
84358;BME280;74548;47.712;9.272;2024-03-08T05:36:46;95185.06;;;8.46;59.98
84358;BME280;74548;47.712;9.272;2024-03-08T05:39:13;95179.19;;;8.44;59.79
84358;BME280;74548;47.712;9.272;2024-03-08T05:41:40;95171.13;;;8.44;59.64
84358;BME280;74548;47.712;9.272;2024-03-08T05:44:05;95177.56;;;8.43;59.82
84358;BME280;74548;47.712;9.272;2024-03-08T05:46:31;95167.91;;;8.42;59.80
84358;BME280;74548;47.712;9.272;2024-03-08T05:48:56;95170.59;;;8.42;59.21
84358;BME280;74548;47.712;9.272;2024-03-08T05:51:24;95169.00;;;8.41;60.03
84358;BME280;74548;47.712;9.272;2024-03-08T05:53:51;95165.47;;;8.40;59.81
84358;BME280;74548;47.712;9.272;2024-03-08T05:56:18;95167.38;;;8.40;59.57
84358;BME280;74548;47.712;9.272;2024-03-08T05:58:43;95163.88;;;8.39;59.97
84358;BME280;74548;47.712;9.272;2024-03-08T06:01:09;95163.88;;;8.39;60.23
84358;BME280;74548;47.712;9.272;2024-03-08T06:03:37;95163.09;;;8.39;59.80
84358;BME280;74548;47.712;9.272;2024-03-08T06:06:09;95169.53;;;8.37;59.97
84358;BME280;74548;47.712;9.272;2024-03-08T06:08:35;95171.16;;;8.39;59.59
84358;BME280;74548;47.712;9.272;2024-03-08T06:11:00;95171.41;;;8.37;60.02
84358;BME280;74548;47.712;9.272;2024-03-08T06:13:27;95169.81;;;8.36;59.78
84358;BME280;74548;47.712;9.272;2024-03-08T06:15:52;95169.00;;;8.35;59.77
84358;BME280;74548;47.712;9.272;2024-03-08T06:20:33;95174.38;;;8.35;59.80
84358;BME280;74548;47.712;9.272;2024-03-08T06:22:58;95172.78;;;8.34;59.78
84358;BME280;74548;47.712;9.272;2024-03-08T06:25:24;95175.47;;;8.34;59.83
84358;BME280;74548;47.712;9.272;2024-03-08T06:27:50;95176.53;;;8.33;60.17
84358;BME280;74548;47.712;9.272;2024-03-08T06:32:46;95183.31;;;8.31;59.74
84358;BME280;74548;47.712;9.272;2024-03-08T06:35:11;95187.06;;;8.30;58.90
84358;BME280;74548;47.712;9.272;2024-03-08T06:37:37;95190.06;;;8.28;58.73
84358;BME280;74548;47.712;9.272;2024-03-08T06:42:16;95191.13;;;8.27;59.03
84358;BME280;74548;47.712;9.272;2024-03-08T06:44:41;95184.16;;;8.26;59.18
84358;BME280;74548;47.712;9.272;2024-03-08T06:47:14;95194.09;;;8.26;59.37
84358;BME280;74548;47.712;9.272;2024-03-08T06:49:40;95179.56;;;8.27;59.81
84358;BME280;74548;47.712;9.272;2024-03-08T06:52:06;95178.78;;;8.26;59.44
84358;BME280;74548;47.712;9.272;2024-03-08T06:54:34;95175.28;;;8.26;59.06
84358;BME280;74548;47.712;9.272;2024-03-08T06:57:01;95179.88;;;8.25;59.01
84358;BME280;74548;47.712;9.272;2024-03-08T06:59:29;95177.44;;;8.24;58.64
84358;BME280;74548;47.712;9.272;2024-03-08T07:01:54;95170.84;;;8.11;57.46
84358;BME280;74548;47.712;9.272;2024-03-08T07:04:19;95169.84;;;8.02;58.48
84358;BME280;74548;47.712;9.272;2024-03-08T07:06:47;95169.13;;;7.96;59.03
84358;BME280;74548;47.712;9.272;2024-03-08T07:09:15;95167.50;;;7.95;58.79
84358;BME280;74548;47.712;9.272;2024-03-08T07:11:42;95172.88;;;7.95;58.57
84358;BME280;74548;47.712;9.272;2024-03-08T07:16:34;95171.50;;;7.98;58.00
84358;BME280;74548;47.712;9.272;2024-03-08T07:19:01;95161.28;;;8.00;58.41
84358;BME280;74548;47.712;9.272;2024-03-08T07:21:26;95163.97;;;8.00;58.17
84358;BME280;74548;47.712;9.272;2024-03-08T07:23:52;95167.97;;;8.02;58.09
84358;BME280;74548;47.712;9.272;2024-03-08T07:28:48;95166.91;;;8.03;58.43
84358;BME280;74548;47.712;9.272;2024-03-08T07:31:13;95163.91;;;8.05;58.77
84358;BME280;74548;47.712;9.272;2024-03-08T07:33:50;95169.28;;;8.05;58.28
84358;BME280;74548;47.712;9.272;2024-03-08T07:36:16;95172.78;;;8.05;58.81
84358;BME280;74548;47.712;9.272;2024-03-08T07:38:41;95174.41;;;8.06;58.80
84358;BME280;74548;47.712;9.272;2024-03-08T07:41:06;95160.16;;;8.06;58.67
84358;BME280;74548;47.712;9.272;2024-03-08T07:43:32;95166.34;;;8.06;58.81
84358;BME280;74548;47.712;9.272;2024-03-08T07:45:58;95167.41;;;8.05;58.93
84358;BME280;74548;47.712;9.272;2024-03-08T07:48:23;95162.84;;;8.06;59.03
84358;BME280;74548;47.712;9.272;2024-03-08T07:50:48;95159.06;;;8.07;58.83
84358;BME280;74548;47.712;9.272;2024-03-08T07:53:15;95161.75;;;8.07;59.09
84358;BME280;74548;47.712;9.272;2024-03-08T07:55:40;95158.28;;;8.06;58.77
84358;BME280;74548;47.712;9.272;2024-03-08T07:58:07;95148.31;;;8.07;59.36
84358;BME280;74548;47.712;9.272;2024-03-08T08:02:46;95144.84;;;8.06;58.85
84358;BME280;74548;47.712;9.272;2024-03-08T08:05:14;95149.13;;;8.07;59.11
84358;BME280;74548;47.712;9.272;2024-03-08T08:07:40;95147.22;;;8.08;59.22
84358;BME280;74548;47.712;9.272;2024-03-08T08:10:08;95151.81;;;8.07;59.05
84358;BME280;74548;47.712;9.272;2024-03-08T08:12:40;95151.00;;;8.07;58.81
84358;BME280;74548;47.712;9.272;2024-03-08T08:15:07;95146.44;;;8.07;59.41
84358;BME280;74548;47.712;9.272;2024-03-08T08:17:32;95151.81;;;8.07;59.07
84358;BME280;74548;47.712;9.272;2024-03-08T08:20:00;95156.38;;;8.07;58.87
84358;BME280;74548;47.712;9.272;2024-03-08T08:22:25;95145.63;;;8.07;59.06
84358;BME280;74548;47.712;9.272;2024-03-08T08:24:50;95141.06;;;8.07;59.14
84358;BME280;74548;47.712;9.272;2024-03-08T08:27:17;95145.63;;;8.07;59.55
84358;BME280;74548;47.712;9.272;2024-03-08T08:29:42;95143.75;;;8.07;59.22
84358;BME280;74548;47.712;9.272;2024-03-08T08:34:35;95147.22;;;8.08;59.41
84358;BME280;74548;47.712;9.272;2024-03-08T08:37:01;95138.38;;;8.07;59.27
84358;BME280;74548;47.712;9.272;2024-03-08T08:41:56;95137.56;;;8.07;59.17
84358;BME280;74548;47.712;9.272;2024-03-08T08:44:21;95135.69;;;8.07;59.04
84358;BME280;74548;47.712;9.272;2024-03-08T08:46:47;95131.09;;;8.08;59.82
84358;BME280;74548;47.712;9.272;2024-03-08T08:53:25;95127.34;;;8.09;59.45
84358;BME280;74548;47.712;9.272;2024-03-08T08:55:50;95124.66;;;8.09;59.18
84358;BME280;74548;47.712;9.272;2024-03-08T08:58:17;95129.75;;;8.10;59.32
84358;BME280;74548;47.712;9.272;2024-03-08T09:00:43;95119.00;;;8.10;59.50
84358;BME280;74548;47.712;9.272;2024-03-08T09:03:10;95123.56;;;8.10;59.58
84358;BME280;74548;47.712;9.272;2024-03-08T09:05:37;95125.50;;;8.04;57.63
84358;BME280;74548;47.712;9.272;2024-03-08T09:08:03;95113.19;;;7.98;58.76
84358;BME280;74548;47.712;9.272;2024-03-08T09:10:28;95115.09;;;7.98;58.03
84358;BME280;74548;47.712;9.272;2024-03-08T09:12:54;95110.25;;;8.00;57.59
84358;BME280;74548;47.712;9.272;2024-03-08T09:15:20;95107.72;;;8.08;57.92
84358;BME280;74548;47.712;9.272;2024-03-08T09:17:46;95107.09;;;8.17;58.25
84358;BME280;74548;47.712;9.272;2024-03-08T09:20:12;95094.63;;;8.26;57.69
84358;BME280;74548;47.712;9.272;2024-03-08T09:25:00;95091.81;;;8.41;57.67
84358;BME280;74548;47.712;9.272;2024-03-08T09:27:27;95092.53;;;8.47;57.92
84358;BME280;74548;47.712;9.272;2024-03-08T09:29:52;95091.91;;;8.55;57.37
84358;BME280;74548;47.712;9.272;2024-03-08T09:32:18;95086.47;;;8.60;57.22
84358;BME280;74548;47.712;9.272;2024-03-08T09:34:43;95092.56;;;8.66;57.63
84358;BME280;74548;47.712;9.272;2024-03-08T09:37:08;95096.31;;;8.70;57.24
84358;BME280;74548;47.712;9.272;2024-03-08T09:39:34;95100.81;;;8.74;57.56
84358;BME280;74548;47.712;9.272;2024-03-08T09:42:00;95102.13;;;8.77;57.85
84358;BME280;74548;47.712;9.272;2024-03-08T09:44:26;95103.94;;;8.81;57.39
84358;BME280;74548;47.712;9.272;2024-03-08T09:46:54;95096.13;;;8.85;57.30
84358;BME280;74548;47.712;9.272;2024-03-08T09:49:20;95097.41;;;8.88;57.75
84358;BME280;74548;47.712;9.272;2024-03-08T09:51:46;95090.66;;;8.90;57.52
84358;BME280;74548;47.712;9.272;2024-03-08T09:54:12;95081.19;;;8.93;57.47
84358;BME280;74548;47.712;9.272;2024-03-08T10:01:18;95083.84;;;8.98;57.17
84358;BME280;74548;47.712;9.272;2024-03-08T10:03:43;95081.94;;;8.98;57.05
84358;BME280;74548;47.712;9.272;2024-03-08T10:06:08;95079.72;;;9.00;57.30
84358;BME280;74548;47.712;9.272;2024-03-08T10:08:35;95073.28;;;9.01;57.13
84358;BME280;74548;47.712;9.272;2024-03-08T10:11:01;95078.34;;;9.03;57.76
84358;BME280;74548;47.712;9.272;2024-03-08T10:13:27;95065.69;;;9.03;57.43
84358;BME280;74548;47.712;9.272;2024-03-08T10:15:53;95073.19;;;9.06;57.30
84358;BME280;74548;47.712;9.272;2024-03-08T10:18:19;95058.94;;;9.06;57.70
84358;BME280;74548;47.712;9.272;2024-03-08T10:20:44;95060.25;;;9.09;56.74
84358;BME280;74548;47.712;9.272;2024-03-08T10:23:10;95052.19;;;9.09;57.49
84358;BME280;74548;47.712;9.272;2024-03-08T10:25:36;95046.78;;;9.09;57.46
84358;BME280;74548;47.712;9.272;2024-03-08T10:28:03;95049.19;;;9.10;57.37
84358;BME280;74548;47.712;9.272;2024-03-08T10:30:30;95051.59;;;9.12;57.46
84358;BME280;74548;47.712;9.272;2024-03-08T10:32:55;95047.00;;;9.12;56.98
84358;BME280;74548;47.712;9.272;2024-03-08T10:35:21;95042.41;;;9.13;57.43
84358;BME280;74548;47.712;9.272;2024-03-08T10:37:49;95044.84;;;9.14;56.92
84358;BME280;74548;47.712;9.272;2024-03-08T10:40:25;95048.00;;;9.16;57.08
84358;BME280;74548;47.712;9.272;2024-03-08T10:42:53;95037.25;;;9.16;57.20
84358;BME280;74548;47.712;9.272;2024-03-08T10:47:57;95029.69;;;9.18;57.28
84358;BME280;74548;47.712;9.272;2024-03-08T10:50:27;95029.69;;;9.18;57.21
84358;BME280;74548;47.712;9.272;2024-03-08T10:55:25;95024.50;;;9.22;57.43
84358;BME280;74548;47.712;9.272;2024-03-08T10:57:51;95032.31;;;9.23;57.09
84358;BME280;74548;47.712;9.272;2024-03-08T11:00:18;95034.22;;;9.23;57.59
84358;BME280;74548;47.712;9.272;2024-03-08T11:02:51;95031.22;;;9.24;56.95
84358;BME280;74548;47.712;9.272;2024-03-08T11:05:37;95027.72;;;9.24;57.44
84358;BME280;74548;47.712;9.272;2024-03-08T11:08:23;95022.34;;;9.24;57.47
84358;BME280;74548;47.712;9.272;2024-03-08T11:10:50;95024.22;;;9.23;57.57
84358;BME280;74548;47.712;9.272;2024-03-08T11:13:39;95030.91;;;9.26;57.25
84358;BME280;74548;47.712;9.272;2024-03-08T11:19:06;95019.34;;;9.25;57.71
84358;BME280;74548;47.712;9.272;2024-03-08T11:21:36;95010.19;;;9.26;57.24
84358;BME280;74548;47.712;9.272;2024-03-08T11:24:12;95006.38;;;9.27;56.73
84358;BME280;74548;47.712;9.272;2024-03-08T11:26:39;94996.41;;;9.28;57.68
84358;BME280;74548;47.712;9.272;2024-03-08T11:32:07;94991.34;;;9.26;57.36
84358;BME280;74548;47.712;9.272;2024-03-08T11:34:39;94984.84;;;9.27;57.39
84358;BME280;74548;47.712;9.272;2024-03-08T11:37:11;94985.66;;;9.28;57.32
84358;BME280;74548;47.712;9.272;2024-03-08T11:39:39;94978.34;;;9.28;58.13
84358;BME280;74548;47.712;9.272;2024-03-08T11:42:05;94981.06;;;9.28;57.35
84358;BME280;74548;47.712;9.272;2024-03-08T11:44:30;94984.84;;;9.27;57.44
84358;BME280;74548;47.712;9.272;2024-03-08T11:46:57;94978.66;;;9.27;57.84
84358;BME280;74548;47.712;9.272;2024-03-08T11:49:22;94973.28;;;9.27;57.31
84358;BME280;74548;47.712;9.272;2024-03-08T11:51:51;94978.34;;;9.28;57.59
84358;BME280;74548;47.712;9.272;2024-03-08T11:54:17;94970.28;;;9.28;57.66
84358;BME280;74548;47.712;9.272;2024-03-08T11:56:44;94963.31;;;9.27;56.98
84358;BME280;74548;47.712;9.272;2024-03-08T11:59:12;94955.22;;;9.27;57.56
84358;BME280;74548;47.712;9.272;2024-03-08T12:01:38;94959.50;;;9.28;57.88
84358;BME280;74548;47.712;9.272;2024-03-08T12:04:04;94950.38;;;9.29;57.76
84358;BME280;74548;47.712;9.272;2024-03-08T12:06:38;94948.75;;;9.28;58.11
84358;BME280;74548;47.712;9.272;2024-03-08T12:09:08;94946.06;;;9.28;57.39
84358;BME280;74548;47.712;9.272;2024-03-08T12:11:35;94947.75;;;9.24;56.71
84358;BME280;74548;47.712;9.272;2024-03-08T12:14:01;94940.91;;;9.13;55.51
84358;BME280;74548;47.712;9.272;2024-03-08T12:16:27;94933.72;;;8.95;55.19
84358;BME280;74548;47.712;9.272;2024-03-08T12:18:53;94945.13;;;8.87;55.42
84358;BME280;74548;47.712;9.272;2024-03-08T12:21:19;94942.59;;;8.76;55.65
84358;BME280;74548;47.712;9.272;2024-03-08T12:24:02;94934.19;;;8.64;55.78
84358;BME280;74548;47.712;9.272;2024-03-08T12:26:28;94928.38;;;8.57;56.16
84358;BME280;74548;47.712;9.272;2024-03-08T12:29:00;94928.75;;;8.50;56.57
84358;BME280;74548;47.712;9.272;2024-03-08T12:31:39;94923.94;;;8.47;55.88
84358;BME280;74548;47.712;9.272;2024-03-08T12:34:04;94922.13;;;8.43;56.20
84358;BME280;74548;47.712;9.272;2024-03-08T12:36:30;94926.50;;;8.39;56.00
84358;BME280;74548;47.712;9.272;2024-03-08T12:38:55;94920.56;;;8.36;56.21
84358;BME280;74548;47.712;9.272;2024-03-08T12:41:21;94915.28;;;8.31;56.24
84358;BME280;74548;47.712;9.272;2024-03-08T12:43:48;94912.38;;;8.28;56.63
84358;BME280;74548;47.712;9.272;2024-03-08T12:46:17;94911.06;;;8.25;56.41
84358;BME280;74548;47.712;9.272;2024-03-08T12:48:43;94901.69;;;8.23;56.91
84358;BME280;74548;47.712;9.272;2024-03-08T12:51:15;94898.84;;;8.14;56.86
84358;BME280;74548;47.712;9.272;2024-03-08T12:53:42;94900.00;;;8.08;57.08
84358;BME280;74548;47.712;9.272;2024-03-08T12:56:11;94896.81;;;8.06;57.32
84358;BME280;74548;47.712;9.272;2024-03-08T12:58:37;94886.91;;;8.01;56.48
84358;BME280;74548;47.712;9.272;2024-03-08T13:01:04;94888.00;;;8.00;56.85
84358;BME280;74548;47.712;9.272;2024-03-08T13:03:35;94886.13;;;8.01;56.78
84358;BME280;74548;47.712;9.272;2024-03-08T13:06:05;94881.84;;;8.00;57.17
84358;BME280;74548;47.712;9.272;2024-03-08T13:08:37;94880.44;;;8.02;57.30
84358;BME280;74548;47.712;9.272;2024-03-08T13:11:06;94867.84;;;8.03;57.17
84358;BME280;74548;47.712;9.272;2024-03-08T13:13:32;94867.25;;;8.06;56.79
84358;BME280;74548;47.712;9.272;2024-03-08T13:16:01;94854.97;;;8.00;57.43
84358;BME280;74548;47.712;9.272;2024-03-08T13:18:26;94859.31;;;7.96;57.34
84358;BME280;74548;47.712;9.272;2024-03-08T13:20:53;94852.34;;;7.95;57.57
84358;BME280;74548;47.712;9.272;2024-03-08T13:23:20;94860.41;;;7.95;57.24
84358;BME280;74548;47.712;9.272;2024-03-08T13:25:46;94849.59;;;8.00;57.63
84358;BME280;74548;47.712;9.272;2024-03-08T13:28:13;94839.91;;;7.99;58.08
84358;BME280;74548;47.712;9.272;2024-03-08T13:30:39;94833.97;;;8.02;57.83
84358;BME280;74548;47.712;9.272;2024-03-08T13:33:05;94844.44;;;8.03;59.32
84358;BME280;74548;47.712;9.272;2024-03-08T13:35:32;94840.38;;;8.06;59.32
84358;BME280;74548;47.712;9.272;2024-03-08T13:37:59;94835.00;;;8.06;58.79
84358;BME280;74548;47.712;9.272;2024-03-08T13:45:12;94814.78;;;8.08;59.51
84358;BME280;74548;47.712;9.272;2024-03-08T13:47:40;94820.09;;;8.13;59.62
84358;BME280;74548;47.712;9.272;2024-03-08T13:50:10;94815.25;;;8.16;58.94
84358;BME280;74548;47.712;9.272;2024-03-08T13:52:39;94803.91;;;8.19;59.09
84358;BME280;74548;47.712;9.272;2024-03-08T13:55:06;94804.41;;;8.21;58.39
84358;BME280;74548;47.712;9.272;2024-03-08T13:57:33;94797.84;;;8.27;59.29
84358;BME280;74548;47.712;9.272;2024-03-08T13:59:59;94790.81;;;8.31;59.38
84358;BME280;74548;47.712;9.272;2024-03-08T14:02:25;94785.88;;;8.38;58.80